Time;durP1;ratioP1;P1;durP2;ratioP2;P2;SDS_P1;SDS_P2;PMS_P1;PMS_P2;Temp;Humidity;BMP_temperature;BMP_pressure;BME280_temperature;BME280_humidity;BME280_pressure;Samples;Min_cycle;Max_cycle;Signal;HPM_P1;HPM_P2
2021/03/13 00:02:22;;;;;;;2.97;1.93;;;20.80;77.90;;;;;;5020902;28;96515;-48
2021/03/13 00:04:52;;;;;;;2.42;1.80;;;20.90;77.90;;;;;;5014070;28;95312;-48
2021/03/13 00:07:25;;;;;;;3.30;2.03;;;20.90;77.90;;;;;;5021616;28;95272;-39
2021/03/13 00:09:56;;;;;;;5.10;3.28;;;20.90;77.90;;;;;;5013622;28;96813;-39
2021/03/13 00:12:26;;;;;;;1.83;1.67;;;20.90;77.90;;;;;;5014309;28;96768;-39
2021/03/13 00:14:55;;;;;;;3.72;2.50;;;21.00;77.90;;;;;;5015808;28;95800;-39
2021/03/13 00:17:25;;;;;;;2.65;1.65;;;20.90;78.00;;;;;;5012183;28;95370;-40
2021/03/13 00:19:54;;;;;;;1.90;1.70;;;21.00;77.80;;;;;;5016490;28;95813;-40
2021/03/13 00:22:24;;;;;;;2.55;1.83;;;21.00;77.80;;;;;;5011069;28;96642;-40
2021/03/13 00:24:54;;;;;;;3.00;2.10;;;21.00;77.80;;;;;;5015967;28;96280;-39
2021/03/13 00:27:26;;;;;;;3.40;1.88;;;21.00;77.80;;;;;;5008752;28;95796;-39
2021/03/13 00:30:20;;;;;;;3.30;1.80;;;21.10;77.90;;;;;;5009037;28;95752;-39
2021/03/13 00:32:56;;;;;;;1.75;1.52;;;21.10;77.80;;;;;;5017258;28;95983;-48
2021/03/13 00:35:29;;;;;;;4.15;1.60;;;21.10;77.70;;;;;;5017725;28;95991;-48
2021/03/13 00:38:01;;;;;;;1.73;1.60;;;21.10;77.70;;;;;;5018364;28;95685;-48
2021/03/13 00:40:34;;;;;;;2.13;1.88;;;21.10;77.70;;;;;;5017526;28;95698;-48
2021/03/13 00:43:06;;;;;;;2.17;1.70;;;21.20;77.70;;;;;;5026913;28;95932;-47
2021/03/13 00:45:37;;;;;;;2.28;1.50;;;21.10;77.60;;;;;;4991937;28;95767;-47
2021/03/13 00:48:09;;;;;;;2.25;1.45;;;21.20;77.60;;;;;;5025705;28;95756;-49
2021/03/13 00:50:44;;;;;;;1.73;1.60;;;21.20;77.50;;;;;;5017068;28;95742;-38
2021/03/13 00:53:16;;;;;;;3.05;2.05;;;21.30;77.50;;;;;;5020074;28;96094;-38
2021/03/13 00:55:46;;;;;;;1.65;1.50;;;21.20;77.50;;;;;;5023042;27;96390;-39
2021/03/13 00:58:25;;;;;;;1.98;1.88;;;21.30;77.50;;;;;;5013053;28;95823;-39
2021/03/13 01:01:00;;;;;;;2.53;1.63;;;21.30;77.50;;;;;;5028140;27;96489;-38
2021/03/13 01:03:34;;;;;;;2.58;1.60;;;21.30;77.30;;;;;;5009693;28;95932;-38
2021/03/13 01:06:12;;;;;;;2.00;1.73;;;21.40;77.30;;;;;;5016048;28;95766;-38
2021/03/13 01:08:43;;;;;;;2.22;1.65;;;21.40;77.30;;;;;;5010778;28;95670;-38
2021/03/13 01:11:20;;;;;;;2.33;1.50;;;21.40;77.20;;;;;;5031600;27;100817;-38
2021/03/13 01:13:56;;;;;;;2.90;1.30;;;21.40;77.10;;;;;;5015747;28;95950;-38
2021/03/13 01:16:33;;;;;;;2.33;1.70;;;21.50;77.20;;;;;;5002252;28;97447;-47
2021/03/13 01:19:05;;;;;;;1.80;1.70;;;21.50;77.10;;;;;;4999335;28;95815;-46
2021/03/13 01:21:36;;;;;;;1.30;1.20;;;21.50;77.00;;;;;;4992988;28;95840;-46
2021/03/13 01:24:10;;;;;;;1.60;1.50;;;21.60;77.00;;;;;;5008181;28;96773;-46
2021/03/13 01:26:42;;;;;;;1.80;1.50;;;21.60;77.00;;;;;;5016371;28;96077;-47
2021/03/13 01:29:15;;;;;;;2.05;1.75;;;21.60;76.90;;;;;;5018078;28;95816;-46
2021/03/13 01:32:02;;;;;;;1.92;1.65;;;21.70;77.20;;;;;;5020267;28;95793;-47
2021/03/13 01:34:38;;;;;;;4.13;1.60;;;21.60;77.00;;;;;;5013976;28;96345;-46
2021/03/13 01:37:17;;;;;;;2.63;1.92;;;21.70;77.20;;;;;;5008626;28;96323;-47
2021/03/13 01:39:52;;;;;;;1.52;1.42;;;21.70;77.00;;;;;;5003024;28;95319;-47
2021/03/13 01:42:26;;;;;;;2.65;1.50;;;21.70;76.90;;;;;;5010092;28;95780;-47
2021/03/13 01:45:04;;;;;;;1.60;1.35;;;21.70;76.90;;;;;;4993840;28;97467;-47
2021/03/13 01:47:37;;;;;;;1.77;1.58;;;21.70;77.00;;;;;;5002199;27;97849;-47
2021/03/13 01:50:14;;;;;;;2.53;1.65;;;21.70;76.90;;;;;;5009430;28;95496;-46
2021/03/13 01:52:43;;;;;;;;;;;21.70;76.80;;;;;;5008193;28;98675;-47
2021/03/13 01:55:14;;;;;;;1.42;1.33;;;21.70;76.70;;;;;;5016834;28;95973;-47
2021/03/13 01:57:46;;;;;;;3.90;2.15;;;21.70;76.80;;;;;;5001044;28;97799;-48
2021/03/13 02:00:24;;;;;;;3.33;1.55;;;21.70;76.70;;;;;;5036202;27;95774;-47
2021/03/13 02:02:58;;;;;;;2.08;1.77;;;21.80;76.70;;;;;;5009096;28;95353;-47
2021/03/13 02:05:45;;;;;;;2.08;1.33;;;21.70;76.60;;;;;;4982017;28;97085;-47
2021/03/13 02:08:25;;;;;;;3.70;1.75;;;21.80;76.50;;;;;;5008201;28;95968;-46
2021/03/13 02:11:17;;;;;;;1.50;1.27;;;21.80;76.60;;;;;;4988875;28;95266;-40
2021/03/13 02:14:19;;;;;;;2.03;1.60;;;21.80;76.50;;;;;;4985990;28;95886;-39
2021/03/13 02:17:02;;;;;;;3.13;1.60;;;21.70;76.50;;;;;;4994227;28;96526;-41
2021/03/13 02:20:03;;;;;;;2.20;1.88;;;21.70;76.10;;;;;;4992253;28;97675;-40
2021/03/13 02:22:41;;;;;;;1.45;1.35;;;21.70;76.30;;;;;;5034287;27;95888;-39
2021/03/13 02:26:11;;;;;;;1.58;1.48;;;21.70;76.20;;;;;;4996817;28;96070;-40
2021/03/13 02:29:14;;;;;;;5.03;1.33;;;21.70;76.30;;;;;;5010475;28;96186;-40
2021/03/13 02:31:57;;;;;;;2.83;1.42;;;21.70;76.30;;;;;;4997305;28;96040;-39
2021/03/13 02:34:32;;;;;;;2.60;1.42;;;21.70;76.30;;;;;;5031811;27;95450;-46
2021/03/13 02:37:10;;;;;;;1.85;1.35;;;21.80;76.40;;;;;;5021885;28;95976;-40
2021/03/13 02:39:48;;;;;;;1.65;1.55;;;21.70;76.30;;;;;;4999606;28;96374;-40
2021/03/13 02:42:18;;;;;;;2.60;1.58;;;21.80;76.50;;;;;;5000655;28;95875;-40
2021/03/13 02:44:51;;;;;;;2.27;1.70;;;21.80;76.40;;;;;;5001872;28;96120;-40
2021/03/13 02:47:27;;;;;;;1.65;1.55;;;21.80;76.30;;;;;;5001351;28;96464;-39
2021/03/13 02:50:03;;;;;;;1.75;1.30;;;21.80;76.30;;;;;;5021990;28;96294;-40
2021/03/13 02:52:44;;;;;;;1.70;1.60;;;21.70;76.20;;;;;;5005600;28;95601;-40
2021/03/13 02:55:16;;;;;;;3.03;1.80;;;21.80;76.00;;;;;;5016753;28;95805;-40
2021/03/13 02:57:53;;;;;;;2.50;1.83;;;21.70;76.10;;;;;;5030679;27;96066;-40
2021/03/13 03:00:31;;;;;;;2.28;1.77;;;21.70;76.20;;;;;;4996578;28;98825;-39
2021/03/13 03:03:02;;;;;;;2.63;2.40;;;21.80;76.30;;;;;;4998595;28;95869;-40
2021/03/13 03:05:54;;;;;;;2.40;2.03;;;21.70;76.30;;;;;;5022471;28;97049;-40
2021/03/13 03:08:27;;;;;;;5.22;2.17;;;21.70;76.30;;;;;;5025907;28;95768;-40
2021/03/13 03:11:00;;;;;;;4.07;2.75;;;21.70;76.30;;;;;;5038405;27;98468;-40
2021/03/13 03:13:30;;;;;;;3.88;2.95;;;21.80;76.30;;;;;;5010031;28;95786;-39
2021/03/13 03:16:04;;;;;;;3.13;2.72;;;21.70;76.30;;;;;;5001122;28;97073;-40
2021/03/13 03:18:37;;;;;;;3.88;2.53;;;21.70;76.30;;;;;;5000207;28;95974;-40
2021/03/13 03:21:08;;;;;;;;;;;21.70;76.40;;;;;;5031241;27;98499;-39
2021/03/13 03:23:42;;;;;;;2.65;2.38;;;21.70;76.40;;;;;;5003472;28;95841;-40
2021/03/13 03:26:14;;;;;;;2.85;2.28;;;21.70;76.50;;;;;;4986159;28;96475;-40
2021/03/13 03:28:47;;;;;;;4.03;2.40;;;21.70;76.40;;;;;;5004698;28;95763;-39
2021/03/13 03:31:22;;;;;;;3.05;2.83;;;21.70;76.50;;;;;;4987273;28;98736;-40
2021/03/13 03:33:53;;;;;;;4.53;2.45;;;21.70;76.70;;;;;;4991730;28;96234;-40
2021/03/13 03:36:24;;;;;;;2.85;2.47;;;21.70;76.70;;;;;;4992976;28;95298;-40
2021/03/13 03:39:01;;;;;;;3.88;2.70;;;21.70;76.70;;;;;;4992772;28;96064;-41
2021/03/13 03:41:39;;;;;;;4.70;2.47;;;21.70;77.50;;;;;;5003770;28;96260;-40
2021/03/13 03:44:26;;;;;;;4.75;2.80;;;21.70;76.90;;;;;;5020861;28;95777;-40
2021/03/13 03:47:05;;;;;;;6.40;2.85;;;21.70;77.00;;;;;;5003065;28;95390;-42
2021/03/13 03:49:41;;;;;;;3.88;2.80;;;21.70;77.40;;;;;;5012866;28;98888;-40
2021/03/13 03:52:25;;;;;;;3.47;2.28;;;21.70;77.40;;;;;;5028842;27;98526;-40
2021/03/13 03:55:06;;;;;;;3.40;2.83;;;21.70;77.40;;;;;;5025821;28;95879;-40
2021/03/13 03:57:39;;;;;;;3.75;2.72;;;21.70;77.40;;;;;;5020790;28;95217;-39
2021/03/13 04:00:13;;;;;;;3.08;1.90;;;21.60;77.30;;;;;;5020004;28;95450;-40
2021/03/13 04:02:57;;;;;;;7.13;2.53;;;21.70;77.50;;;;;;5023678;27;96916;-40
2021/03/13 04:05:28;;;;;;;3.42;2.40;;;21.70;77.50;;;;;;5012265;28;95678;-39
2021/03/13 04:08:01;;;;;;;6.60;3.08;;;21.60;77.40;;;;;;5025505;28;96187;-40
2021/03/13 04:10:32;;;;;;;4.05;2.92;;;21.60;77.50;;;;;;4997507;28;95665;-39
2021/03/13 04:13:02;;;;;;;4.82;2.80;;;21.60;77.60;;;;;;5015799;28;96318;-40
2021/03/13 04:15:33;;;;;;;3.95;2.83;;;21.60;77.70;;;;;;5019653;28;95903;-40
2021/03/13 04:18:05;;;;;;;;;;;21.60;77.60;;;;;;5014859;28;95771;-39
2021/03/13 04:20:37;;;;;;;5.75;2.78;;;21.60;77.70;;;;;;4999686;28;95574;-41
2021/03/13 04:23:09;;;;;;;5.35;3.10;;;21.60;77.80;;;;;;5013125;27;96098;-43
2021/03/13 04:25:41;;;;;;;6.53;3.30;;;21.60;77.90;;;;;;5008847;27;96068;-40
2021/03/13 04:28:12;;;;;;;5.68;3.65;;;21.60;77.80;;;;;;5022019;28;95831;-40
2021/03/13 04:30:43;;;;;;;;;;;21.60;78.00;;;;;;5024360;28;96901;-40
2021/03/13 04:33:17;;;;;;;4.40;2.97;;;21.50;78.10;;;;;;5015237;28;96811;-40
2021/03/13 04:35:51;;;;;;;6.05;3.40;;;21.50;78.30;;;;;;5011808;28;95709;-39
2021/03/13 04:38:24;;;;;;;4.10;3.28;;;21.50;78.30;;;;;;5011223;28;95951;-48
2021/03/13 04:40:56;;;;;;;5.13;2.97;;;21.50;78.40;;;;;;5024374;28;95658;-40
2021/03/13 04:43:27;;;;;;;7.50;3.53;;;21.50;78.30;;;;;;5018124;28;96118;-40
2021/03/13 04:46:02;;;;;;;5.18;3.10;;;21.50;78.30;;;;;;5020009;28;95810;-39
2021/03/13 04:48:38;;;;;;;6.50;3.10;;;21.50;78.30;;;;;;5015452;28;95612;-39
2021/03/13 04:51:09;;;;;;;6.00;3.67;;;21.50;78.30;;;;;;5018002;28;95802;-40
2021/03/13 04:53:45;;;;;;;4.97;2.95;;;21.50;78.40;;;;;;5013978;28;96683;-40
2021/03/13 04:56:17;;;;;;;4.18;2.95;;;21.40;78.40;;;;;;5005473;28;97274;-39
2021/03/13 04:58:48;;;;;;;3.60;2.35;;;21.40;78.30;;;;;;5018747;28;98075;-40
2021/03/13 05:01:18;;;;;;;3.90;3.22;;;21.40;78.30;;;;;;5018219;28;96727;-39
2021/03/13 05:03:47;;;;;;;4.07;3.17;;;21.40;78.30;;;;;;5016374;28;97955;-38
2021/03/13 05:06:17;;;;;;;3.10;2.70;;;21.40;78.40;;;;;;5022992;28;95850;-38
2021/03/13 05:08:48;;;;;;;3.15;1.98;;;21.40;78.50;;;;;;5017165;28;97726;-39
2021/03/13 05:11:18;;;;;;;3.28;2.42;;;21.40;78.40;;;;;;5009758;28;95818;-39
2021/03/13 05:13:49;;;;;;;3.47;2.63;;;21.40;78.50;;;;;;5026848;28;97005;-41
2021/03/13 05:16:21;;;;;;;5.00;3.05;;;21.40;78.60;;;;;;5021874;28;98507;-39
2021/03/13 05:18:51;;;;;;;3.20;2.35;;;21.30;78.70;;;;;;5000828;28;99295;-39
2021/03/13 05:21:21;;;;;;;6.40;2.65;;;21.30;78.60;;;;;;4998461;28;95891;-47
2021/03/13 05:23:51;;;;;;;5.10;2.90;;;21.30;78.60;;;;;;5020805;28;96059;-47
2021/03/13 05:26:21;;;;;;;4.43;2.25;;;21.30;78.70;;;;;;5019434;28;96009;-47
2021/03/13 05:28:53;;;;;;;;;;;21.30;78.60;;;;;;5014782;28;95548;-47
2021/03/13 05:31:25;;;;;;;3.20;1.88;;;21.20;78.80;;;;;;5010015;28;95627;-47
2021/03/13 05:34:04;;;;;;;2.80;2.17;;;21.20;78.80;;;;;;5023123;28;96269;-47
2021/03/13 05:36:36;;;;;;;5.45;2.05;;;21.20;78.80;;;;;;5015351;28;95566;-47
2021/03/13 05:39:08;;;;;;;2.88;1.95;;;21.20;78.80;;;;;;5014778;28;95429;-47
2021/03/13 05:41:40;;;;;;;2.10;1.63;;;21.20;78.60;;;;;;5015958;28;95698;-47
2021/03/13 05:44:12;;;;;;;1.77;1.60;;;21.20;78.50;;;;;;5007420;28;96045;-47
2021/03/13 05:46:47;;;;;;;2.15;1.60;;;21.20;78.60;;;;;;4994163;28;98089;-47
2021/03/13 05:49:18;;;;;;;2.28;1.75;;;21.10;78.50;;;;;;5009415;28;95881;-48
2021/03/13 05:51:48;;;;;;;2.37;1.77;;;21.10;78.50;;;;;;5022930;28;95934;-38
2021/03/13 05:54:20;;;;;;;2.15;1.80;;;21.10;78.50;;;;;;5014527;28;98343;-38
2021/03/13 05:56:51;;;;;;;3.00;1.95;;;21.10;78.50;;;;;;5023619;28;96056;-38
2021/03/13 05:59:22;;;;;;;3.65;2.33;;;21.10;78.40;;;;;;5027002;27;95863;-38
2021/03/13 06:01:53;;;;;;;2.30;1.20;;;21.00;78.40;;;;;;5016053;28;95370;-47
2021/03/13 06:04:25;;;;;;;2.33;1.48;;;21.00;78.30;;;;;;5016835;28;98785;-48
2021/03/13 06:06:56;;;;;;;1.38;1.25;;;21.00;78.20;;;;;;5017053;28;95761;-47
2021/03/13 06:09:27;;;;;;;1.67;1.35;;;21.00;78.20;;;;;;5016548;28;95343;-47
2021/03/13 06:11:56;;;;;;;1.53;1.43;;;20.90;78.10;;;;;;5011553;28;95612;-47
2021/03/13 06:14:26;;;;;;;2.05;1.90;;;20.90;78.00;;;;;;5012695;28;99381;-47
2021/03/13 06:16:58;;;;;;;1.48;1.27;;;20.90;77.90;;;;;;5024477;28;95760;-47
2021/03/13 06:19:55;;;;;;;4.07;1.83;;;20.90;78.00;;;;;;5022407;28;95378;-47
2021/03/13 06:22:43;;;;;;;3.05;1.63;;;20.90;78.00;;;;;;5021377;27;95768;-47
2021/03/13 06:25:13;;;;;;;1.52;1.17;;;20.90;78.10;;;;;;5013947;27;95755;-47
2021/03/13 06:27:46;;;;;;;1.58;1.42;;;20.80;77.90;;;;;;5012270;27;95979;-47
2021/03/13 06:30:18;;;;;;;2.33;1.40;;;20.80;78.10;;;;;;5024830;28;95711;-47
2021/03/13 06:32:49;;;;;;;1.63;1.30;;;20.80;78.70;;;;;;5027673;28;95781;-47
2021/03/13 06:35:25;;;;;;;1.30;1.20;;;20.80;78.00;;;;;;5025539;28;96009;-47
2021/03/13 06:38:00;;;;;;;1.45;1.35;;;20.80;78.10;;;;;;5022463;28;95949;-47
2021/03/13 06:40:38;;;;;;;1.67;1.58;;;20.80;78.20;;;;;;5024401;28;97031;-47
2021/03/13 06:43:28;;;;;;;1.80;1.60;;;20.70;78.20;;;;;;5027886;28;95718;-48
2021/03/13 06:46:06;;;;;;;1.17;1.00;;;20.70;78.30;;;;;;5008047;28;98229;-47
2021/03/13 06:48:40;;;;;;;1.27;1.17;;;20.70;78.20;;;;;;5012088;27;95594;-47
2021/03/13 06:51:21;;;;;;;2.03;1.30;;;20.70;78.20;;;;;;5013661;28;95633;-47
2021/03/13 06:54:10;;;;;;;2.33;1.13;;;20.70;78.20;;;;;;5014057;28;95948;-48
2021/03/13 06:56:57;;;;;;;2.05;1.15;;;20.70;78.20;;;;;;5026660;28;95842;-47
2021/03/13 06:59:35;;;;;;;2.58;1.10;;;20.60;78.30;;;;;;5004011;28;95900;-47
2021/03/13 07:02:11;;;;;;;1.35;1.13;;;20.60;78.20;;;;;;5017234;28;95765;-47
2021/03/13 07:04:45;;;;;;;0.98;0.88;;;20.60;78.30;;;;;;5013271;28;95456;-47
2021/03/13 07:07:30;;;;;;;1.27;1.10;;;20.60;78.20;;;;;;5015959;28;96481;-48
2021/03/13 07:10:07;;;;;;;1.05;0.98;;;20.60;78.20;;;;;;5006183;28;95871;-47
2021/03/13 07:12:42;;;;;;;1.33;1.23;;;20.50;78.20;;;;;;5005203;28;95729;-47
2021/03/13 07:15:23;;;;;;;0.95;0.90;;;20.50;78.40;;;;;;4989712;28;96259;-48
2021/03/13 07:18:00;;;;;;;0.98;0.80;;;20.50;78.50;;;;;;5017566;28;96261;-47
2021/03/13 07:20:32;;;;;;;1.40;1.30;;;20.50;78.50;;;;;;5010166;28;100849;-48
2021/03/13 07:23:04;;;;;;;1.30;0.93;;;20.50;78.60;;;;;;5021691;28;95843;-47
2021/03/13 07:25:35;;;;;;;1.77;1.02;;;20.50;78.50;;;;;;5015164;28;96763;-47
2021/03/13 07:28:09;;;;;;;2.28;1.40;;;20.50;78.70;;;;;;5024983;28;96004;-47
2021/03/13 07:30:42;;;;;;;1.25;1.13;;;20.50;78.70;;;;;;5017108;28;95974;-47
2021/03/13 07:33:17;;;;;;;0.70;0.70;;;20.40;78.60;;;;;;5024785;28;95672;-47
2021/03/13 07:35:54;;;;;;;2.17;0.98;;;20.40;78.60;;;;;;5018636;28;95719;-48
2021/03/13 07:38:30;;;;;;;2.25;1.15;;;20.40;78.50;;;;;;5017801;28;96651;-47
2021/03/13 07:41:00;;;;;;;1.65;1.17;;;20.40;78.40;;;;;;5018542;28;98330;-48
2021/03/13 07:43:33;;;;;;;0.93;0.85;;;20.40;78.40;;;;;;5010756;28;95819;-47
2021/03/13 07:46:07;;;;;;;1.25;1.10;;;20.40;78.40;;;;;;5013132;28;96118;-47
2021/03/13 07:48:41;;;;;;;1.02;0.90;;;20.40;78.40;;;;;;5013402;28;97431;-47
2021/03/13 07:51:14;;;;;;;1.00;0.88;;;20.40;78.50;;;;;;5017958;28;95801;-48
2021/03/13 07:53:46;;;;;;;1.48;1.10;;;20.40;78.70;;;;;;5021147;28;95648;-47
2021/03/13 07:56:21;;;;;;;1.08;0.85;;;20.30;78.60;;;;;;5023401;27;95677;-47
2021/03/13 07:58:52;;;;;;;1.60;1.10;;;20.30;78.60;;;;;;5013569;28;96607;-49
2021/03/13 08:01:47;;;;;;;1.20;0.82;;;20.30;78.50;;;;;;5014659;28;95954;-47
2021/03/13 08:04:43;;;;;;;1.42;1.02;;;20.30;78.60;;;;;;5026152;28;95750;-47
2021/03/13 08:07:15;;;;;;;0.77;0.77;;;20.30;78.60;;;;;;4996940;28;95733;-47
2021/03/13 08:09:46;;;;;;;1.95;1.08;;;20.30;78.60;;;;;;5016300;28;96599;-47
2021/03/13 08:12:39;;;;;;;1.23;1.00;;;20.30;78.70;;;;;;5008108;28;95649;-48
2021/03/13 08:15:30;;;;;;;1.88;0.95;;;20.30;78.60;;;;;;5024509;28;95700;-47
2021/03/13 08:18:01;;;;;;;1.00;0.90;;;20.30;78.60;;;;;;5020885;28;96001;-47
2021/03/13 08:20:34;;;;;;;1.38;0.90;;;20.30;78.60;;;;;;5027940;28;96161;-47
2021/03/13 08:23:19;;;;;;;2.50;1.10;;;20.30;78.60;;;;;;5019887;27;95311;-47
2021/03/13 08:26:00;;;;;;;1.70;0.90;;;20.20;78.70;;;;;;5017272;28;95844;-47
2021/03/13 08:28:47;;;;;;;;;;;20.20;78.70;;;;;;5015645;28;95858;-47
2021/03/13 08:31:23;;;;;;;1.95;1.10;;;20.20;78.60;;;;;;5026841;28;97222;-47
2021/03/13 08:33:59;;;;;;;2.55;1.30;;;20.10;78.60;;;;;;5012445;28;95891;-47
2021/03/13 08:36:51;;;;;;;1.45;1.05;;;20.10;78.50;;;;;;5025681;28;95827;-47
2021/03/13 08:39:24;;;;;;;2.65;0.95;;;20.10;78.50;;;;;;5018353;28;95374;-47
2021/03/13 08:41:55;;;;;;;1.80;1.10;;;20.10;78.60;;;;;;5027129;28;95985;-47
2021/03/13 08:44:27;;;;;;;2.35;1.20;;;20.10;78.50;;;;;;5019887;27;95709;-47
2021/03/13 08:47:10;;;;;;;2.03;1.20;;;20.00;78.30;;;;;;5023129;28;95671;-47
2021/03/13 08:49:47;;;;;;;2.42;2.22;;;20.00;78.30;;;;;;5012603;28;95929;-47
2021/03/13 08:52:19;;;;;;;1.52;0.82;;;20.00;78.20;;;;;;5027826;28;96277;-47
2021/03/13 08:54:54;;;;;;;1.92;0.90;;;20.00;78.10;;;;;;5015457;28;96614;-47
2021/03/13 08:57:26;;;;;;;1.40;0.98;;;20.00;78.20;;;;;;5034126;27;95435;-47
2021/03/13 08:59:56;;;;;;;3.53;1.33;;;20.00;78.00;;;;;;5001689;28;95515;-47
2021/03/13 09:02:30;;;;;;;4.07;0.88;;;19.90;77.90;;;;;;5014083;28;96320;-47
2021/03/13 09:05:13;;;;;;;2.03;1.00;;;19.90;77.80;;;;;;4988670;28;95896;-47
2021/03/13 09:07:58;;;;;;;2.65;1.00;;;19.90;77.70;;;;;;5022888;28;95882;-47
2021/03/13 09:10:29;;;;;;;1.80;1.40;;;19.90;77.80;;;;;;5018172;28;95925;-47
2021/03/13 09:12:59;;;;;;;4.18;1.40;;;19.80;78.00;;;;;;5021722;28;96512;-47
2021/03/13 09:15:30;;;;;;;0.98;0.73;;;19.80;77.70;;;;;;5011346;28;96001;-47
2021/03/13 09:18:00;;;;;;;;;;;19.80;77.70;;;;;;5013453;28;95600;-47
2021/03/13 09:20:31;;;;;;;3.10;0.95;;;19.80;77.60;;;;;;5007561;28;95750;-47
2021/03/13 09:23:02;;;;;;;1.73;1.20;;;19.80;77.60;;;;;;5024144;28;96583;-46
2021/03/13 09:25:35;;;;;;;2.45;1.15;;;19.80;77.70;;;;;;5019948;28;95779;-46
2021/03/13 09:28:06;;;;;;;4.65;1.20;;;19.80;77.70;;;;;;5009812;28;96153;-47
2021/03/13 09:30:37;;;;;;;2.72;1.00;;;19.70;77.60;;;;;;5004282;28;96043;-47
2021/03/13 09:33:09;;;;;;;2.13;1.17;;;19.70;77.70;;;;;;5010502;28;96103;-47
2021/03/13 09:35:40;;;;;;;4.45;1.10;;;19.70;78.50;;;;;;5009058;28;100998;-47
2021/03/13 09:38:11;;;;;;;2.17;0.80;;;19.70;77.90;;;;;;5020177;28;95628;-49
2021/03/13 09:40:43;;;;;;;3.03;1.30;;;19.70;78.00;;;;;;5026303;28;95845;-47
2021/03/13 09:43:14;;;;;;;2.78;1.50;;;19.70;78.10;;;;;;5009546;28;96357;-47
2021/03/13 09:45:45;;;;;;;3.22;1.40;;;19.70;78.20;;;;;;5024471;28;95786;-47
2021/03/13 09:48:16;;;;;;;4.20;1.52;;;19.60;78.10;;;;;;5031178;28;96019;-47
2021/03/13 09:50:48;;;;;;;2.47;1.48;;;19.60;78.10;;;;;;5022848;28;97413;-48
2021/03/13 09:53:18;;;;;;;1.88;1.10;;;19.60;78.40;;;;;;5030544;28;96002;-39
2021/03/13 09:55:52;;;;;;;4.38;1.58;;;19.60;78.40;;;;;;5021703;28;97846;-47
2021/03/13 09:58:25;;;;;;;3.75;1.15;;;19.60;78.30;;;;;;5024358;28;95838;-47
2021/03/13 10:00:54;;;;;;;;;;;19.60;78.40;;;;;;5027704;28;95512;-38
2021/03/13 10:03:26;;;;;;;3.80;1.38;;;19.60;78.50;;;;;;5027384;28;95908;-38
2021/03/13 10:05:58;;;;;;;7.63;2.00;;;19.50;78.30;;;;;;5025944;28;95897;-46
2021/03/13 10:08:38;;;;;;;2.90;1.00;;;19.50;78.40;;;;;;5027750;28;95319;-47
2021/03/13 10:11:09;;;;;;;5.20;1.50;;;19.50;78.40;;;;;;5018889;28;95482;-47
2021/03/13 10:13:40;;;;;;;2.67;1.30;;;19.40;78.30;;;;;;5018239;28;98744;-47
2021/03/13 10:16:15;;;;;;;4.13;1.53;;;19.50;78.40;;;;;;5025019;28;95804;-47
2021/03/13 10:18:46;;;;;;;3.10;1.27;;;19.40;78.30;;;;;;5016925;28;96031;-47
2021/03/13 10:21:16;;;;;;;4.07;1.70;;;19.40;78.20;;;;;;5022016;28;95892;-47
2021/03/13 10:23:45;;;;;;;3.17;1.05;;;19.40;78.20;;;;;;5020056;28;95913;-47
2021/03/13 10:26:16;;;;;;;5.00;1.40;;;19.40;78.10;;;;;;5022814;28;95585;-47
2021/03/13 10:28:50;;;;;;;3.78;1.40;;;19.40;78.10;;;;;;4998694;28;96046;-47
2021/03/13 10:31:29;;;;;;;2.42;1.20;;;19.30;77.90;;;;;;5012490;28;95678;-47
2021/03/13 10:34:15;;;;;;;5.65;1.10;;;19.30;78.10;;;;;;5010605;28;96541;-47
2021/03/13 10:36:47;;;;;;;5.88;1.58;;;19.30;78.30;;;;;;5007987;28;95846;-47
2021/03/13 10:39:18;;;;;;;3.20;1.38;;;19.30;78.40;;;;;;5012369;28;95445;-46
2021/03/13 10:41:55;;;;;;;4.80;1.67;;;19.30;78.40;;;;;;5018702;28;95216;-47
2021/03/13 10:44:25;;;;;;;3.97;1.00;;;19.30;78.40;;;;;;5017608;28;96597;-46
2021/03/13 10:46:59;;;;;;;3.00;1.25;;;19.30;78.50;;;;;;5020656;28;97847;-46
2021/03/13 10:49:31;;;;;;;2.45;1.38;;;19.30;78.40;;;;;;5013663;28;95336;-48
2021/03/13 10:52:02;;;;;;;3.58;2.00;;;19.30;78.40;;;;;;5016162;28;96112;-48
2021/03/13 10:54:33;;;;;;;3.88;1.13;;;19.20;78.40;;;;;;5021360;28;96625;-48
2021/03/13 10:57:07;;;;;;;3.47;1.20;;;19.20;78.50;;;;;;4997854;28;95898;-47
2021/03/13 10:59:38;;;;;;;3.63;1.40;;;19.20;78.50;;;;;;5024051;28;95881;-47
2021/03/13 11:02:08;;;;;;;3.07;1.20;;;19.20;78.50;;;;;;4994533;28;96421;-47
2021/03/13 11:04:41;;;;;;;3.97;1.52;;;19.20;78.50;;;;;;4995559;28;98337;-47
2021/03/13 11:07:12;;;;;;;2.40;1.10;;;19.20;78.50;;;;;;5016034;28;96109;-48
2021/03/13 11:09:48;;;;;;;2.78;1.08;;;19.20;78.50;;;;;;5019777;28;95234;-47
2021/03/13 11:12:20;;;;;;;5.10;1.80;;;19.20;78.50;;;;;;5018248;28;96237;-47
2021/03/13 11:14:51;;;;;;;3.50;1.63;;;19.20;78.50;;;;;;5021996;28;100226;-47
2021/03/13 11:17:23;;;;;;;2.15;1.00;;;19.10;78.50;;;;;;5019996;28;96231;-47
2021/03/13 11:19:54;;;;;;;5.30;1.50;;;19.10;78.60;;;;;;5019469;28;95935;-47
2021/03/13 11:22:24;;;;;;;2.53;1.07;;;19.10;78.60;;;;;;5015633;28;96122;-47
2021/03/13 11:24:56;;;;;;;3.75;1.25;;;19.10;78.60;;;;;;5019704;28;100625;-47
2021/03/13 11:27:27;;;;;;;2.08;1.15;;;19.10;78.70;;;;;;5021059;28;95842;-47
2021/03/13 11:29:57;;;;;;;4.65;1.50;;;19.10;78.60;;;;;;5015112;28;95532;-45
2021/03/13 11:32:28;;;;;;;;;;;19.10;78.60;;;;;;5019179;28;95731;-47
2021/03/13 11:35:00;;;;;;;3.50;1.48;;;19.00;78.50;;;;;;5014224;28;96184;-47
2021/03/13 11:37:30;;;;;;;;;;;19.00;78.60;;;;;;5018616;28;96583;-47
2021/03/13 11:40:01;;;;;;;3.15;1.00;;;19.00;78.60;;;;;;5015542;28;95965;-47
2021/03/13 11:42:32;;;;;;;4.55;1.73;;;19.00;78.60;;;;;;5004621;28;95413;-47
2021/03/13 11:45:09;;;;;;;5.77;2.20;;;19.00;78.70;;;;;;5022055;28;96434;-47
2021/03/13 11:47:42;;;;;;;3.90;2.20;;;19.00;78.70;;;;;;5019845;28;96122;-47
2021/03/13 11:50:15;;;;;;;3.42;1.55;;;19.00;78.70;;;;;;5002668;28;95467;-48
2021/03/13 11:52:45;;;;;;;4.20;1.70;;;19.00;78.70;;;;;;5016272;28;95704;-45
2021/03/13 11:55:15;;;;;;;4.00;1.70;;;18.90;78.70;;;;;;5012344;28;98180;-46
2021/03/13 11:57:47;;;;;;;3.80;2.00;;;18.90;78.60;;;;;;5015157;28;95576;-46
2021/03/13 12:00:20;;;;;;;5.20;1.63;;;18.90;78.70;;;;;;5018092;28;95981;-48
2021/03/13 12:02:49;;;;;;;4.28;1.90;;;18.90;78.70;;;;;;5014446;28;95788;-46
2021/03/13 12:05:20;;;;;;;3.05;1.50;;;18.90;78.70;;;;;;5020284;28;95930;-46
2021/03/13 12:07:51;;;;;;;4.13;1.58;;;18.90;78.70;;;;;;5014905;28;95823;-46
2021/03/13 12:10:22;;;;;;;4.43;1.55;;;18.90;78.80;;;;;;5024865;28;97765;-47
2021/03/13 12:12:52;;;;;;;5.20;1.65;;;18.80;78.70;;;;;;5016301;28;95245;-48
2021/03/13 12:15:23;;;;;;;4.63;1.70;;;18.80;78.60;;;;;;5012497;28;96042;-47
2021/03/13 12:17:52;;;;;;;2.33;1.48;;;18.80;78.70;;;;;;5022742;28;95781;-46
2021/03/13 12:20:22;;;;;;;3.83;1.50;;;18.80;78.60;;;;;;5023480;28;96010;-47
2021/03/13 12:22:53;;;;;;;4.07;1.88;;;18.80;78.80;;;;;;5021021;27;95390;-46
2021/03/13 12:25:23;;;;;;;;;;;18.80;78.70;;;;;;5033928;27;99239;-46
2021/03/13 12:27:54;;;;;;;3.28;1.60;;;18.80;78.80;;;;;;5012740;28;95851;-46
2021/03/13 12:30:25;;;;;;;2.70;1.35;;;18.80;78.80;;;;;;5015658;28;95279;-46
2021/03/13 12:32:56;;;;;;;;;;;18.80;78.80;;;;;;4998191;28;96014;-46
2021/03/13 12:35:27;;;;;;;3.57;1.60;;;18.80;78.80;;;;;;5005626;28;96386;-46
2021/03/13 12:37:59;;;;;;;6.72;1.88;;;18.70;78.80;;;;;;5014185;28;95840;-46
2021/03/13 12:40:50;;;;;;;4.20;1.17;;;18.70;78.80;;;;;;4998307;28;95306;-46
2021/03/13 12:43:20;;;;;;;2.40;1.45;;;18.70;78.90;;;;;;5008111;28;95503;-47
2021/03/13 12:45:52;;;;;;;;;;;18.70;78.70;;;;;;5018446;28;97014;-46
2021/03/13 12:48:24;;;;;;;3.47;1.45;;;18.70;78.60;;;;;;5014718;28;95713;-47
2021/03/13 12:50:56;;;;;;;4.87;1.40;;;18.60;78.50;;;;;;5012540;28;95716;-47
2021/03/13 12:53:26;;;;;;;3.03;1.70;;;18.60;78.40;;;;;;5011084;28;95712;-47
2021/03/13 12:55:56;;;;;;;3.63;1.33;;;18.60;78.30;;;;;;5013243;28;96372;-47
2021/03/13 12:58:28;;;;;;;3.90;1.65;;;18.60;78.10;;;;;;5010370;28;96172;-47
2021/03/13 13:01:00;;;;;;;4.97;1.50;;;18.50;77.90;;;;;;5022789;28;96037;-47
2021/03/13 13:03:31;;;;;;;5.55;1.67;;;18.50;77.80;;;;;;4997146;28;95845;-47
2021/03/13 13:06:03;;;;;;;7.20;1.77;;;18.50;77.70;;;;;;5017738;28;95966;-47
2021/03/13 13:08:33;;;;;;;4.22;1.77;;;18.50;77.60;;;;;;4995189;28;97065;-47
2021/03/13 13:11:04;;;;;;;3.65;1.55;;;18.50;77.60;;;;;;5010191;28;95878;-47
2021/03/13 13:13:34;;;;;;;6.95;1.08;;;18.40;77.60;;;;;;5009354;28;95481;-47
2021/03/13 13:16:06;;;;;;;4.32;1.67;;;18.40;77.50;;;;;;5015234;28;96179;-47
2021/03/13 13:18:38;;;;;;;7.72;1.50;;;18.40;77.50;;;;;;5005833;28;100351;-47
2021/03/13 13:21:09;;;;;;;4.60;1.73;;;18.40;77.60;;;;;;5016534;28;95760;-46
2021/03/13 13:23:41;;;;;;;5.40;2.08;;;18.40;77.70;;;;;;5015268;28;95621;-47
2021/03/13 13:26:11;;;;;;;5.22;1.92;;;18.40;77.50;;;;;;4999726;28;97137;-46
2021/03/13 13:28:43;;;;;;;2.78;1.25;;;18.40;77.60;;;;;;5013580;28;95686;-46